createdAt,value
2022-08-09T00:01:43.055Z,22.67
2022-08-09T00:04:06.132Z,22.61
2022-08-09T00:06:23.284Z,22.54
2022-08-09T00:08:31.966Z,22.55
2022-08-09T00:10:34.597Z,22.46
2022-08-09T00:12:37.381Z,22.71
2022-08-09T00:14:40.106Z,22.46
2022-08-09T00:16:47.021Z,22.56
2022-08-09T00:18:49.259Z,22.30
2022-08-09T00:20:50.791Z,22.35
2022-08-09T00:22:52.864Z,22.33
2022-08-09T00:24:55.994Z,22.25
2022-08-09T00:26:57.637Z,22.07
2022-08-09T00:29:01.627Z,22.22
2022-08-09T00:31:30.639Z,22.37
2022-08-09T00:33:32.805Z,22.12
2022-08-09T00:35:46.406Z,22.26
2022-08-09T00:37:48.820Z,22.35
2022-08-09T00:40:09.471Z,21.92
2022-08-09T00:44:14.998Z,22.19
2022-08-09T00:44:35.515Z,22.08
2022-08-09T00:46:57.232Z,21.84
2022-08-09T00:49:00.938Z,21.77
2022-08-09T00:51:03.607Z,22.02
2022-08-09T00:53:13.558Z,22.05
2022-08-09T00:56:03.268Z,21.97
2022-08-09T00:57:39.839Z,21.77
2022-08-09T00:59:46.678Z,21.63
2022-08-09T01:01:48.888Z,21.70
2022-08-09T01:03:54.962Z,21.81
2022-08-09T01:06:03.921Z,21.53
2022-08-09T01:08:26.762Z,21.58
2022-08-09T01:10:30.917Z,21.73
2022-08-09T01:12:35.226Z,21.52
2022-08-09T01:14:39.497Z,21.35
2022-08-09T01:16:47.269Z,21.39
2022-08-09T01:19:04.569Z,21.44
2022-08-09T01:21:13.496Z,21.43
2022-08-09T01:24:03.160Z,21.61
2022-08-09T01:25:52.323Z,21.43
2022-08-09T01:27:57.972Z,21.58
2022-08-09T01:30:00.726Z,21.35
2022-08-09T01:32:32.513Z,21.45
2022-08-09T01:34:25.447Z,21.46
2022-08-09T01:36:27.660Z,21.80
2022-08-09T01:38:29.877Z,21.25
2022-08-09T01:40:32.067Z,21.33
2022-08-09T01:42:34.457Z,21.15
2022-08-09T01:44:38.519Z,21.06
2022-08-09T01:46:40.813Z,21.30
2022-08-09T01:48:44.778Z,21.07
2022-08-09T01:50:54.989Z,21.02
2022-08-09T01:52:56.982Z,20.94
2022-08-09T01:54:58.529Z,21.15
2022-08-09T01:57:04.227Z,21.22
2022-08-09T01:59:06.735Z,21.01
2022-08-09T02:01:10.191Z,21.02
2022-08-09T02:03:20.298Z,20.86
2022-08-09T02:05:38.053Z,21.24
2022-08-09T02:08:40.802Z,21.32
2022-08-09T02:10:09.928Z,21.13
2022-08-09T02:12:17.965Z,21.33
2022-08-09T02:14:26.254Z,21.34
2022-08-09T02:16:33.767Z,21.28
2022-08-09T02:18:51.036Z,20.71
2022-08-09T02:20:55.365Z,20.98
2022-08-09T02:23:00.084Z,20.81
2022-08-09T02:25:02.129Z,20.71
2022-08-09T02:27:04.523Z,21.00
2022-08-09T02:29:09.459Z,20.72
2022-08-09T02:31:12.895Z,20.86
2022-08-09T02:33:18.811Z,21.09
2022-08-09T02:36:01.967Z,21.00
2022-08-09T02:37:46.751Z,20.73
2022-08-09T02:39:55.378Z,20.73
2022-08-09T02:42:04.484Z,20.80
2022-08-09T02:44:13.700Z,21.00
2022-08-09T02:46:21.430Z,20.59
2022-08-09T02:48:30.721Z,20.54
2022-08-09T02:50:33.751Z,20.81
2022-08-09T02:52:37.126Z,20.88
2022-08-09T02:54:54.071Z,20.47
2022-08-09T02:56:57.022Z,20.88
2022-08-09T02:58:59.773Z,20.74
2022-08-09T03:01:03.960Z,20.33
2022-08-09T03:03:06.322Z,20.32
2022-08-09T03:05:11.188Z,20.39
2022-08-09T03:07:18.393Z,20.26
2022-08-09T03:09:19.927Z,20.28
2022-08-09T03:12:04.877Z,20.18
2022-08-09T03:13:59.311Z,20.24
2022-08-09T03:16:06.353Z,20.04
2022-08-09T03:18:10.741Z,20.27
2022-08-09T03:20:13.850Z,20.28
2022-08-09T03:22:25.179Z,20.43
2022-08-09T03:24:52.436Z,20.27
2022-08-09T03:26:53.498Z,20.42
2022-08-09T03:28:55.278Z,20.18
2022-08-09T03:30:57.083Z,19.91
2022-08-09T03:32:58.818Z,20.39
2022-08-09T03:35:00.410Z,20.27
2022-08-09T03:37:54.691Z,19.99
2022-08-09T03:39:28.676Z,19.99
2022-08-09T03:41:48.360Z,20.07
2022-08-09T03:44:02.943Z,20.03
2022-08-09T03:46:20.516Z,20.00
2022-08-09T03:48:30.911Z,19.88
2022-08-09T03:50:33.457Z,19.89
2022-08-09T03:52:36.617Z,20.13
2022-08-09T03:54:40.380Z,19.83
2022-08-09T03:56:41.986Z,19.81
2022-08-09T03:58:43.611Z,19.89
2022-08-09T04:00:47.793Z,20.05
2022-08-09T04:02:52.653Z,19.84
2022-08-09T04:04:55.864Z,19.76
2022-08-09T04:06:57.375Z,20.02
2022-08-09T04:09:00.767Z,19.97
2022-08-09T04:11:02.308Z,19.70
2022-08-09T04:13:04.723Z,19.96
2022-08-09T04:15:17.287Z,19.99
2022-08-09T04:17:29.555Z,19.67
2022-08-09T04:19:42.906Z,19.71
2022-08-09T04:21:52.872Z,19.73
2022-08-09T04:23:57.716Z,19.88
2022-08-09T04:26:00.835Z,19.71
2022-08-09T04:28:03.546Z,19.54
2022-08-09T04:30:06.053Z,19.72
2022-08-09T04:32:07.607Z,19.91
2022-08-09T04:34:09.174Z,19.66
2022-08-09T04:36:11.437Z,19.65
2022-08-09T04:38:13.330Z,19.60
2022-08-09T04:40:19.033Z,19.88
2022-08-09T04:42:32.525Z,19.91
2022-08-09T04:44:37.278Z,19.42
2022-08-09T04:46:58.079Z,19.82
2022-08-09T04:49:00.737Z,19.65
2022-08-09T04:51:02.296Z,19.69
2022-08-09T04:53:04.938Z,19.73
2022-08-09T04:55:07.081Z,19.45
2022-08-09T04:57:12.316Z,19.46
2022-08-09T04:59:15.679Z,19.65
2022-08-09T05:01:18.737Z,19.92
2022-08-09T05:03:40.460Z,20.01
2022-08-09T05:05:52.191Z,19.89
2022-08-09T05:08:04.187Z,19.59
2022-08-09T05:10:06.249Z,19.47
2022-08-09T05:12:08.035Z,19.63
2022-08-09T05:14:10.244Z,19.66
2022-08-09T05:16:17.478Z,19.64
2022-08-09T05:18:39.214Z,19.55
2022-08-09T05:20:41.916Z,19.63
2022-08-09T05:23:55.124Z,19.71
2022-08-09T05:25:08.037Z,19.65
2022-08-09T05:27:10.679Z,19.77
2022-08-09T05:29:21.635Z,19.67
2022-08-09T05:31:44.021Z,19.82
2022-08-09T05:33:47.036Z,19.96
2022-08-09T05:35:50.887Z,20.13
2022-08-09T05:37:52.520Z,20.27
2022-08-09T05:39:54.098Z,20.14
2022-08-09T05:41:56.172Z,20.39
2022-08-09T05:44:03.240Z,20.40
2022-08-09T05:46:06.980Z,19.95
2022-08-09T05:48:09.917Z,20.10
2022-08-09T05:50:26.786Z,20.35
2022-08-09T05:52:33.257Z,20.20
2022-08-09T05:54:35.645Z,20.60
2022-08-09T05:56:55.326Z,20.55
2022-08-09T05:58:58.916Z,20.22
2022-08-09T06:01:00.613Z,20.01
2022-08-09T06:03:02.944Z,19.99
2022-08-09T06:05:07.276Z,20.38
2022-08-09T06:07:09.735Z,20.68
2022-08-09T06:09:40.777Z,20.66
2022-08-09T06:11:40.798Z,21.10
2022-08-09T06:13:54.461Z,20.78
2022-08-09T06:15:56.172Z,20.77
2022-08-09T06:17:57.695Z,20.73
2022-08-09T06:19:59.186Z,21.15
2022-08-09T06:22:02.353Z,21.24
2022-08-09T06:24:05.019Z,21.26
2022-08-09T06:26:06.642Z,21.55
2022-08-09T06:28:08.218Z,21.36
2022-08-09T06:30:10.634Z,21.46
2022-08-09T06:32:59.631Z,21.12
2022-08-09T06:34:37.342Z,20.93
2022-08-09T06:36:42.891Z,21.05
2022-08-09T06:38:50.147Z,21.26
2022-08-09T06:40:55.106Z,21.60
2022-08-09T06:42:56.781Z,21.23
2022-08-09T06:44:58.328Z,21.21
2022-08-09T06:47:00.022Z,21.52
2022-08-09T06:49:03.471Z,21.68
2022-08-09T06:51:05.122Z,21.92
2022-08-09T06:53:06.775Z,21.78
2022-08-09T06:55:12.831Z,21.87
2022-08-09T06:57:14.572Z,22.27
2022-08-09T07:00:51.173Z,22.47
2022-08-09T07:01:54.442Z,22.41
2022-08-09T07:04:00.818Z,22.50
2022-08-09T07:06:05.899Z,22.47
2022-08-09T07:08:07.438Z,22.13
2022-08-09T07:10:22.395Z,22.52
2022-08-09T07:12:38.602Z,22.67
2022-08-09T07:14:42.740Z,22.70
2022-08-09T07:16:48.130Z,23.16
2022-08-09T07:18:52.372Z,23.17
2022-08-09T07:20:54.530Z,22.85
2022-08-09T07:22:57.669Z,23.18
2022-08-09T07:25:00.226Z,22.76
2022-08-09T07:27:03.271Z,23.31
2022-08-09T07:29:13.524Z,23.40
2022-08-09T07:31:15.232Z,23.20
2022-08-09T07:33:17.512Z,23.32
2022-08-09T07:35:19.279Z,23.73
2022-08-09T07:37:22.041Z,23.53
2022-08-09T07:39:40.278Z,23.30
2022-08-09T07:41:43.313Z,23.20
2022-08-09T07:43:55.983Z,23.40
2022-08-09T07:46:01.930Z,23.26
2022-08-09T07:48:05.204Z,23.27
2022-08-09T07:50:08.561Z,23.48
2022-08-09T07:52:17.046Z,23.86
2022-08-09T07:54:28.062Z,23.93
2022-08-09T07:56:31.930Z,24.21
2022-08-09T07:58:33.491Z,25.09
2022-08-09T08:00:36.813Z,24.83
2022-08-09T08:02:57.737Z,24.77
2022-08-09T08:04:59.660Z,24.71
2022-08-09T08:07:09.286Z,25.20
2022-08-09T08:09:38.708Z,24.86
2022-08-09T08:12:11.196Z,24.48
2022-08-09T08:14:06.450Z,24.77
2022-08-09T08:16:29.509Z,25.28
2022-08-09T08:18:31.039Z,25.31
2022-08-09T08:20:33.503Z,25.57
2022-08-09T08:22:35.253Z,25.60
2022-08-09T08:24:40.747Z,26.08
2022-08-09T08:26:55.529Z,25.70
2022-08-09T08:28:58.109Z,25.54
2022-08-09T08:31:02.458Z,25.44
2022-08-09T08:33:12.014Z,26.09
2022-08-09T08:35:24.637Z,25.91
2022-08-09T08:37:41.467Z,26.27
2022-08-09T08:40:00.208Z,26.26
2022-08-09T08:42:01.847Z,25.90
2022-08-09T08:44:04.585Z,26.30
2022-08-09T08:46:32.230Z,26.38
2022-08-09T08:48:31.183Z,27.28
2022-08-09T08:50:32.782Z,26.98
2022-08-09T08:52:57.708Z,26.86
2022-08-09T08:54:58.147Z,27.23
2022-08-09T08:56:59.667Z,26.76
2022-08-09T08:59:01.349Z,27.13
2022-08-09T09:01:19.726Z,27.33
2022-08-09T09:03:33.159Z,27.72
2022-08-09T09:05:58.333Z,27.06
2022-08-09T09:08:02.257Z,26.67
2022-08-09T09:10:09.141Z,27.11
2022-08-09T09:12:16.547Z,27.73
2022-08-09T09:14:19.830Z,27.78
2022-08-09T09:16:30.913Z,27.71
2022-08-09T09:18:33.343Z,28.26
2022-08-09T09:20:35.403Z,27.87
2022-08-09T09:22:55.519Z,27.80
2022-08-09T09:26:03.356Z,27.59
2022-08-09T09:28:03.807Z,28.01
2022-08-09T09:30:11.485Z,28.28
2022-08-09T09:32:14.916Z,28.51
2022-08-09T09:34:18.513Z,28.63
2022-08-09T09:36:21.987Z,28.86
2022-08-09T09:38:38.334Z,28.72
2022-08-09T09:40:42.869Z,28.68
2022-08-09T09:42:54.960Z,28.59
2022-08-09T09:44:57.138Z,29.00
2022-08-09T09:47:04.389Z,28.61
2022-08-09T09:49:06.959Z,28.70
2022-08-09T09:51:11.653Z,29.19
2022-08-09T09:53:43.754Z,29.15
2022-08-09T09:55:57.632Z,29.51
2022-08-09T09:58:16.353Z,29.16
2022-08-09T10:00:22.060Z,29.57
2022-08-09T10:02:26.604Z,29.84
2022-08-09T10:04:30.824Z,29.50
2022-08-09T10:06:38.404Z,29.31
2022-08-09T10:08:55.035Z,29.54
2022-08-09T10:10:59.005Z,29.92
2022-08-09T10:13:00.924Z,30.42
2022-08-09T10:15:03.643Z,30.84
2022-08-09T10:17:51.170Z,30.76
2022-08-09T10:19:35.831Z,30.08
2022-08-09T10:21:45.359Z,30.31
2022-08-09T10:23:52.062Z,30.67
2022-08-09T10:26:06.553Z,30.20
2022-08-09T10:28:12.260Z,30.31
2022-08-09T10:30:57.905Z,30.84
2022-08-09T10:32:48.382Z,31.19
2022-08-09T10:34:49.974Z,30.55
2022-08-09T10:36:51.635Z,31.35
2022-08-09T10:38:56.725Z,30.98
2022-08-09T10:41:01.073Z,30.12
2022-08-09T10:43:04.734Z,30.83
2022-08-09T10:45:11.848Z,30.35
2022-08-09T10:48:10.163Z,30.27
2022-08-09T10:49:51.456Z,30.17
2022-08-09T10:51:58.863Z,29.96
2022-08-09T10:54:04.792Z,30.72
2022-08-09T10:56:22.611Z,31.63
2022-08-09T10:58:31.203Z,31.12
2022-08-09T11:00:41.769Z,30.80
2022-08-09T11:03:12.077Z,31.41
2022-08-09T11:05:24.900Z,31.45
2022-08-09T11:07:58.324Z,31.83
2022-08-09T11:09:56.205Z,31.40
2022-08-09T11:12:11.326Z,31.35
2022-08-09T11:14:28.887Z,31.57
2022-08-09T11:16:37.736Z,32.08
2022-08-09T11:18:42.585Z,31.94
2022-08-09T11:20:46.629Z,31.49
2022-08-09T11:22:58.469Z,31.32
2022-08-09T11:25:08.451Z,31.83
2022-08-09T11:28:02.962Z,32.40
2022-08-09T11:30:04.861Z,32.70
2022-08-09T11:32:08.148Z,31.51
2022-08-09T11:34:10.465Z,32.31
2022-08-09T11:36:11.978Z,31.31
2022-08-09T11:38:34.781Z,31.19
2022-08-09T11:40:38.106Z,31.94
2022-08-09T11:42:40.376Z,31.90
2022-08-09T11:44:45.066Z,32.18
2022-08-09T11:46:54.315Z,32.07
2022-08-09T11:48:58.450Z,31.91
2022-08-09T11:52:48.453Z,31.88
2022-08-09T11:53:58.409Z,31.92
2022-08-09T11:55:51.950Z,32.46
2022-08-09T11:58:00.373Z,31.89
2022-08-09T12:00:04.603Z,31.92
2022-08-09T12:02:17.518Z,32.22
2022-08-09T12:04:32.214Z,31.60
2022-08-09T12:06:38.840Z,32.14
2022-08-09T12:08:55.394Z,32.89
2022-08-09T12:10:58.842Z,32.71
2022-08-09T12:13:03.685Z,32.22
2022-08-09T12:15:49.149Z,32.45
2022-08-09T12:17:48.967Z,32.90
2022-08-09T12:19:59.816Z,32.24
2022-08-09T12:22:01.984Z,32.21
2022-08-09T12:24:09.581Z,32.88
2022-08-09T12:26:12.953Z,33.29
2022-08-09T12:29:13.810Z,32.93
2022-08-09T12:30:49.108Z,33.07
2022-08-09T12:32:50.727Z,33.21
2022-08-09T12:34:52.258Z,33.38
2022-08-09T12:36:59.097Z,33.84
2022-08-09T12:39:17.917Z,34.39
2022-08-09T12:41:25.692Z,33.86
2022-08-09T12:44:05.910Z,33.48
2022-08-09T12:46:00.247Z,32.55
2022-08-09T12:48:02.387Z,32.40
2022-08-09T12:50:04.372Z,33.13
2022-08-09T12:52:06.543Z,32.77
2022-08-09T12:54:08.598Z,32.61
2022-08-09T12:56:43.559Z,32.88
2022-08-09T12:58:34.342Z,33.52
2022-08-09T13:00:44.813Z,33.83
2022-08-09T13:02:53.299Z,33.98
2022-08-09T13:05:02.409Z,33.90
2022-08-09T13:07:11.266Z,34.01
2022-08-09T13:09:15.459Z,34.11
2022-08-09T13:11:24.305Z,33.85
2022-08-09T13:14:01.032Z,34.53
2022-08-09T13:15:52.751Z,37.33
2022-08-09T13:18:05.468Z,38.19
2022-08-09T13:20:18.684Z,39.58
2022-08-09T13:22:37.482Z,38.64
2022-08-09T13:24:54.216Z,38.13
2022-08-09T13:26:56.260Z,39.06
2022-08-09T13:29:04.645Z,39.98
2022-08-09T13:32:19.953Z,40.97
2022-08-09T13:33:35.974Z,39.54
2022-08-09T13:36:24.163Z,41.14
2022-08-09T13:38:17.605Z,39.49
2022-08-09T13:41:50.637Z,38.81
2022-08-09T13:42:58.222Z,39.04
2022-08-09T13:44:59.779Z,39.72
2022-08-09T13:47:27.704Z,39.58
2022-08-09T13:49:24.584Z,42.27
2022-08-09T13:51:39.758Z,43.00
2022-08-09T13:53:53.896Z,44.58
2022-08-09T13:55:56.554Z,42.67
2022-08-09T13:57:59.671Z,42.91
2022-08-09T14:00:01.534Z,43.41
2022-08-09T14:02:04.609Z,42.40
2022-08-09T14:04:11.590Z,43.56
2022-08-09T14:06:19.390Z,44.92
2022-08-09T14:08:28.309Z,45.30
2022-08-09T14:10:45.942Z,45.92
2022-08-09T14:12:48.139Z,44.32
2022-08-09T14:14:53.750Z,43.39
2022-08-09T14:16:55.594Z,42.80
2022-08-09T14:18:59.510Z,42.31
2022-08-09T14:21:01.217Z,42.51
2022-08-09T14:23:04.390Z,45.07
2022-08-09T14:25:10.101Z,43.65
2022-08-09T14:27:20.489Z,43.47
2022-08-09T14:29:25.726Z,47.75
2022-08-09T14:31:52.233Z,44.66
2022-08-09T14:33:55.317Z,44.93
2022-08-09T14:35:58.228Z,44.92
2022-08-09T14:38:19.119Z,46.29
2022-08-09T14:40:38.800Z,45.08
2022-08-09T14:42:42.595Z,46.30
2022-08-09T14:44:48.997Z,46.14
2022-08-09T14:47:26.333Z,45.39
2022-08-09T14:49:23.698Z,45.28
2022-08-09T14:51:26.757Z,49.14
2022-08-09T14:53:31.140Z,47.92
2022-08-09T14:55:33.179Z,47.87
2022-08-09T14:57:43.277Z,45.46
2022-08-09T14:59:48.572Z,46.65
2022-08-09T15:01:50.811Z,45.78
2022-08-09T15:03:53.224Z,44.92
2022-08-09T15:06:01.568Z,45.74
2022-08-09T15:08:10.276Z,44.03
2022-08-09T15:10:14.369Z,45.97
2022-08-09T15:12:17.664Z,43.53
2022-08-09T15:14:20.527Z,42.07
2022-08-09T15:16:22.030Z,44.53
2022-08-09T15:18:24.284Z,46.49
2022-08-09T15:22:00.915Z,44.99
2022-08-09T15:22:49.190Z,48.66
2022-08-09T15:25:06.863Z,47.50
2022-08-09T15:27:08.468Z,44.30
2022-08-09T15:30:55.823Z,42.87
2022-08-09T15:31:41.064Z,43.45
2022-08-09T15:34:32.673Z,44.63
2022-08-09T15:36:05.861Z,44.64
2022-08-09T15:38:11.567Z,44.21
2022-08-09T15:40:16.142Z,44.95
2022-08-09T15:42:21.978Z,47.15
2022-08-09T15:44:23.534Z,47.28
2022-08-09T15:46:32.395Z,45.85
2022-08-09T15:48:36.912Z,45.66
2022-08-09T15:50:43.616Z,44.41
2022-08-09T15:52:55.035Z,46.04
2022-08-09T15:55:08.340Z,47.17
2022-08-09T15:57:11.239Z,45.20
2022-08-09T15:59:13.444Z,44.50
2022-08-09T16:01:15.044Z,44.68
2022-08-09T16:03:26.696Z,45.43
2022-08-09T16:05:53.590Z,44.44
2022-08-09T16:07:56.448Z,46.60
2022-08-09T16:10:04.908Z,45.56
2022-08-09T16:12:07.060Z,46.17
2022-08-09T16:14:14.426Z,44.35
2022-08-09T16:16:26.216Z,47.31
2022-08-09T16:18:30.124Z,47.03
2022-08-09T16:20:31.698Z,47.09
2022-08-09T16:22:33.853Z,48.56
2022-08-09T16:24:36.909Z,48.01
2022-08-09T16:26:38.512Z,44.03
2022-08-09T16:28:42.664Z,44.06
2022-08-09T16:30:58.738Z,43.64
2022-08-09T16:33:00.661Z,43.56
2022-08-09T16:35:03.290Z,44.68
2022-08-09T16:37:05.423Z,46.01
2022-08-09T16:39:09.461Z,42.98
2022-08-09T16:41:16.696Z,44.45
2022-08-09T16:43:20.967Z,43.26
2022-08-09T16:45:22.671Z,44.26
2022-08-09T16:48:41.195Z,44.53
2022-08-09T16:50:29.272Z,43.71
2022-08-09T16:52:08.493Z,42.96
2022-08-09T16:54:33.992Z,45.15
2022-08-09T16:56:34.247Z,44.78
2022-08-09T16:58:36.820Z,43.90
2022-08-09T17:00:42.899Z,42.65
2022-08-09T17:02:46.340Z,40.90
2022-08-09T17:04:47.965Z,44.38
2022-08-09T17:08:46.138Z,44.30
2022-08-09T17:09:45.159Z,46.47
2022-08-09T17:11:41.864Z,47.35
2022-08-09T17:13:45.125Z,46.12
2022-08-09T17:16:00.039Z,43.38
2022-08-09T17:18:06.049Z,44.71
2022-08-09T17:20:30.265Z,44.34
2022-08-09T17:22:31.214Z,45.74
2022-08-09T17:24:37.674Z,45.70
2022-08-09T17:26:53.224Z,44.65
2022-08-09T17:28:55.097Z,44.74
2022-08-09T17:30:56.604Z,45.47
2022-08-09T17:33:01.368Z,45.71
2022-08-09T17:35:11.892Z,44.73
2022-08-09T17:37:19.622Z,44.35
2022-08-09T17:39:24.816Z,44.18
2022-08-09T17:41:39.057Z,42.34
2022-08-09T17:43:41.361Z,41.74
2022-08-09T17:46:01.764Z,41.39
2022-08-09T17:48:05.541Z,42.20
2022-08-09T17:50:13.951Z,43.06
2022-08-09T17:52:22.513Z,42.50
2022-08-09T17:54:28.128Z,42.05
2022-08-09T17:56:32.571Z,41.77
2022-08-09T17:58:37.679Z,40.56
2022-08-09T18:00:48.166Z,41.39
2022-08-09T18:02:50.408Z,41.87
2022-08-09T18:05:00.242Z,42.34
2022-08-09T18:07:07.676Z,40.86
2022-08-09T18:09:10.887Z,41.63
2022-08-09T18:11:18.066Z,41.13
2022-08-09T18:13:43.326Z,39.37
2022-08-09T18:16:04.907Z,40.74
2022-08-09T18:18:08.557Z,40.52
2022-08-09T18:21:00.102Z,41.50
2022-08-09T18:22:51.254Z,41.58
2022-08-09T18:24:54.365Z,41.15
2022-08-09T18:26:55.886Z,39.39
2022-08-09T18:30:35.698Z,38.97
2022-08-09T18:31:24.743Z,39.61
2022-08-09T18:33:34.267Z,38.47
2022-08-09T18:35:48.083Z,38.18
2022-08-09T18:37:57.425Z,37.95
2022-08-09T18:40:00.431Z,37.05
2022-08-09T18:42:02.165Z,37.03
2022-08-09T18:44:10.624Z,36.34
2022-08-09T18:46:47.038Z,36.10
2022-08-09T18:48:36.354Z,36.70
2022-08-09T18:50:37.856Z,35.95
2022-08-09T18:52:39.544Z,35.31
2022-08-09T18:54:52.200Z,34.56
2022-08-09T18:56:55.939Z,35.30
2022-08-09T18:58:57.461Z,35.10
2022-08-09T19:01:02.577Z,34.26
2022-08-09T19:03:04.469Z,34.11
2022-08-09T19:05:19.519Z,33.15
2022-08-09T19:07:28.073Z,31.95
2022-08-09T19:10:12.810Z,31.92
2022-08-09T19:11:56.188Z,32.01
2022-08-09T19:14:00.338Z,31.47
2022-08-09T19:16:06.937Z,31.18
2022-08-09T19:18:17.179Z,31.09
2022-08-09T19:20:18.945Z,30.59
2022-08-09T19:22:24.199Z,30.70
2022-08-09T19:24:33.161Z,30.50
2022-08-09T19:26:41.416Z,30.74
2022-08-09T19:28:51.772Z,30.24
2022-08-09T19:30:53.307Z,30.36
2022-08-09T19:32:55.148Z,30.35
2022-08-09T19:34:57.438Z,30.40
2022-08-09T19:36:58.992Z,30.03
2022-08-09T19:39:03.458Z,29.79
2022-08-09T19:41:07.211Z,29.88
2022-08-09T19:43:16.357Z,30.05
2022-08-09T19:45:38.941Z,29.92
2022-08-09T19:47:42.007Z,29.85
2022-08-09T19:50:09.442Z,30.00
2022-08-09T19:52:06.443Z,29.81
2022-08-09T19:54:08.415Z,29.71
2022-08-09T19:56:15.652Z,29.53
2022-08-09T19:58:17.339Z,29.56
2022-08-09T20:00:32.865Z,29.41
2022-08-09T20:04:11.715Z,29.54
2022-08-09T20:04:56.638Z,29.67
2022-08-09T20:06:59.468Z,29.36
2022-08-09T20:09:05.539Z,29.29
2022-08-09T20:11:07.819Z,29.06
2022-08-09T20:13:09.348Z,29.45
2022-08-09T20:16:34.641Z,29.31
2022-08-09T20:17:41.551Z,29.01
2022-08-09T20:19:54.101Z,28.94
2022-08-09T20:21:59.925Z,29.19
2022-08-09T20:24:02.296Z,28.96
2022-08-09T20:26:04.179Z,28.76
2022-08-09T20:28:08.484Z,28.93
2022-08-09T20:30:14.781Z,28.88
2022-08-09T20:32:41.934Z,28.95
2022-08-09T20:34:42.571Z,29.07
2022-08-09T20:36:45.233Z,28.93
2022-08-09T20:40:16.499Z,28.56
2022-08-09T20:41:08.379Z,28.60
2022-08-09T20:43:24.299Z,28.70
2022-08-09T20:45:57.546Z,28.74
2022-08-09T20:47:48.814Z,28.34
2022-08-09T20:49:51.860Z,28.27
2022-08-09T20:51:53.422Z,28.64
2022-08-09T20:53:55.989Z,28.19
2022-08-09T20:56:02.430Z,28.34
2022-08-09T20:58:07.764Z,28.44
2022-08-09T21:00:31.120Z,28.30
2022-08-09T21:02:34.189Z,28.27
2022-08-09T21:05:50.730Z,28.39
2022-08-09T21:06:58.837Z,28.29
2022-08-09T21:09:00.458Z,28.24
2022-08-09T21:11:02.772Z,28.32
2022-08-09T21:13:08.032Z,28.43
2022-08-09T21:15:15.475Z,28.29
2022-08-09T21:18:22.257Z,28.14
2022-08-09T21:20:18.833Z,28.29
2022-08-09T21:22:02.811Z,28.22
2022-08-09T21:24:04.725Z,28.11
2022-08-09T21:26:07.209Z,28.25
2022-08-09T21:28:12.259Z,28.24
2022-08-09T21:30:18.804Z,27.96
2022-08-09T21:32:20.445Z,27.97
2022-08-09T21:34:34.988Z,27.71
2022-08-09T21:36:36.571Z,27.84
2022-08-09T21:38:39.435Z,27.99
2022-08-09T21:40:40.975Z,27.37
2022-08-09T21:42:42.498Z,27.53
2022-08-09T21:44:46.236Z,27.50
2022-08-09T21:46:47.737Z,27.22
2022-08-09T21:48:50.008Z,27.47
2022-08-09T21:50:51.631Z,27.43
2022-08-09T21:52:53.166Z,27.16
2022-08-09T21:55:03.181Z,27.06
2022-08-09T21:57:06.157Z,27.06
2022-08-09T21:59:27.044Z,27.16
2022-08-09T22:01:58.634Z,27.23
2022-08-09T22:04:01.024Z,27.06
2022-08-09T22:06:02.555Z,26.99
2022-08-09T22:08:04.546Z,27.19
2022-08-09T22:10:08.136Z,26.93
2022-08-09T22:12:18.614Z,26.74
2022-08-09T22:14:27.132Z,26.89
2022-08-09T22:16:33.005Z,26.66
2022-08-09T22:18:38.426Z,26.81
2022-08-09T22:20:55.269Z,26.90
2022-08-09T22:22:57.310Z,26.92
2022-08-09T22:26:08.196Z,26.78
2022-08-09T22:27:21.720Z,26.90
2022-08-09T22:29:32.280Z,26.80
2022-08-09T22:31:56.340Z,26.53
2022-08-09T22:33:58.650Z,26.54
2022-08-09T22:36:03.709Z,26.53
2022-08-09T22:38:06.921Z,26.57
2022-08-09T22:40:10.210Z,26.49
2022-08-09T22:42:21.967Z,26.27
2022-08-09T22:44:32.686Z,26.25
2022-08-09T22:48:17.101Z,26.32
2022-08-09T22:48:56.155Z,26.47
2022-08-09T22:51:10.455Z,26.23
2022-08-09T22:53:12.500Z,26.43
2022-08-09T22:55:22.871Z,26.02
2022-08-09T22:57:31.708Z,26.26
2022-08-09T22:59:55.146Z,26.28
2022-08-09T23:01:58.118Z,26.23
2022-08-09T23:04:04.340Z,26.05
2022-08-09T23:06:07.973Z,26.02
2022-08-09T23:08:29.299Z,26.28
2022-08-09T23:10:31.706Z,26.16
2022-08-09T23:12:33.245Z,26.20
2022-08-09T23:14:41.847Z,26.06
2022-08-09T23:16:45.378Z,25.90
2022-08-09T23:18:46.910Z,25.93
2022-08-09T23:20:48.451Z,26.07
2022-08-09T23:22:49.998Z,25.96
2022-08-09T23:24:51.612Z,25.81
2022-08-09T23:26:53.100Z,25.95
2022-08-09T23:28:54.616Z,25.96
2022-08-09T23:30:56.258Z,25.79
2022-08-09T23:32:59.119Z,25.79
2022-08-09T23:35:00.655Z,25.73
2022-08-09T23:37:02.409Z,25.50
2022-08-09T23:39:04.661Z,25.58
2022-08-09T23:41:06.238Z,25.42
2022-08-09T23:43:08.004Z,25.64
2022-08-09T23:45:10.033Z,25.34
2022-08-09T23:47:31.521Z,25.31
2022-08-09T23:49:34.439Z,25.66
2022-08-09T23:51:35.955Z,25.40
2022-08-09T23:53:37.650Z,25.54
2022-08-09T23:55:40.059Z,25.50
2022-08-09T23:58:02.718Z,25.13
